sensor_id;sensor_type;location;lat;lon;timestamp;temperature;humidity
11089;DHT22;5598;48.648;8.908;2023-08-08T00:00:53;13.70;98.90
11089;DHT22;5598;48.648;8.908;2023-08-08T00:03:20;13.80;98.80
11089;DHT22;5598;48.648;8.908;2023-08-08T00:05:47;13.80;98.80
11089;DHT22;5598;48.648;8.908;2023-08-08T00:08:14;13.80;98.80
11089;DHT22;5598;48.648;8.908;2023-08-08T00:10:42;13.80;98.80
11089;DHT22;5598;48.648;8.908;2023-08-08T00:13:09;14.10;99.00
11089;DHT22;5598;48.648;8.908;2023-08-08T00:15:35;13.90;99.50
11089;DHT22;5598;48.648;8.908;2023-08-08T00:18:03;13.80;99.20
11089;DHT22;5598;48.648;8.908;2023-08-08T00:20:30;13.70;99.30
11089;DHT22;5598;48.648;8.908;2023-08-08T00:22:57;13.80;99.30
11089;DHT22;5598;48.648;8.908;2023-08-08T00:25:23;13.70;99.50
11089;DHT22;5598;48.648;8.908;2023-08-08T00:27:52;13.60;99.80
11089;DHT22;5598;48.648;8.908;2023-08-08T00:30:19;13.90;99.90
11089;DHT22;5598;48.648;8.908;2023-08-08T00:32:45;13.50;99.90
11089;DHT22;5598;48.648;8.908;2023-08-08T00:35:12;13.50;99.90
11089;DHT22;5598;48.648;8.908;2023-08-08T00:37:39;13.60;99.90
11089;DHT22;5598;48.648;8.908;2023-08-08T00:40:07;13.70;99.90
11089;DHT22;5598;48.648;8.908;2023-08-08T00:42:34;13.70;99.90
11089;DHT22;5598;48.648;8.908;2023-08-08T00:45:02;13.70;99.90
11089;DHT22;5598;48.648;8.908;2023-08-08T00:47:30;13.60;99.90
11089;DHT22;5598;48.648;8.908;2023-08-08T00:49:58;13.60;99.90
11089;DHT22;5598;48.648;8.908;2023-08-08T00:52:26;13.60;99.90
11089;DHT22;5598;48.648;8.908;2023-08-08T00:54:53;13.50;99.90
11089;DHT22;5598;48.648;8.908;2023-08-08T00:57:20;13.80;99.90
11089;DHT22;5598;48.648;8.908;2023-08-08T00:59:47;13.60;99.90
11089;DHT22;5598;48.648;8.908;2023-08-08T01:02:15;13.50;99.90
11089;DHT22;5598;48.648;8.908;2023-08-08T01:04:42;13.50;99.90
11089;DHT22;5598;48.648;8.908;2023-08-08T01:07:17;13.40;99.90
11089;DHT22;5598;48.648;8.908;2023-08-08T01:09:53;13.40;99.90
11089;DHT22;5598;48.648;8.908;2023-08-08T01:12:23;13.30;99.90
11089;DHT22;5598;48.648;8.908;2023-08-08T01:14:50;13.30;99.90
11089;DHT22;5598;48.648;8.908;2023-08-08T01:17:19;13.30;99.90
11089;DHT22;5598;48.648;8.908;2023-08-08T01:19:47;13.30;99.90
11089;DHT22;5598;48.648;8.908;2023-08-08T01:22:19;13.10;99.90
11089;DHT22;5598;48.648;8.908;2023-08-08T01:24:50;13.20;99.90
11089;DHT22;5598;48.648;8.908;2023-08-08T01:27:18;13.20;99.90
11089;DHT22;5598;48.648;8.908;2023-08-08T01:29:45;13.10;99.90
11089;DHT22;5598;48.648;8.908;2023-08-08T01:32:12;13.10;99.90
11089;DHT22;5598;48.648;8.908;2023-08-08T01:34:39;13.00;99.90
11089;DHT22;5598;48.648;8.908;2023-08-08T01:37:09;13.10;99.90
11089;DHT22;5598;48.648;8.908;2023-08-08T01:39:38;13.00;99.90
11089;DHT22;5598;48.648;8.908;2023-08-08T01:42:07;13.00;99.90
11089;DHT22;5598;48.648;8.908;2023-08-08T01:44:34;13.10;99.90
11089;DHT22;5598;48.648;8.908;2023-08-08T01:47:01;13.00;99.90
11089;DHT22;5598;48.648;8.908;2023-08-08T01:49:28;13.00;99.90
11089;DHT22;5598;48.648;8.908;2023-08-08T01:51:55;13.00;99.90
11089;DHT22;5598;48.648;8.908;2023-08-08T01:54:22;13.10;99.90
11089;DHT22;5598;48.648;8.908;2023-08-08T01:56:48;12.90;99.90
11089;DHT22;5598;48.648;8.908;2023-08-08T01:59:16;13.20;99.90
11089;DHT22;5598;48.648;8.908;2023-08-08T02:01:43;12.90;99.90
11089;DHT22;5598;48.648;8.908;2023-08-08T02:04:10;12.80;99.90
11089;DHT22;5598;48.648;8.908;2023-08-08T02:06:37;12.80;99.90
11089;DHT22;5598;48.648;8.908;2023-08-08T02:09:04;12.80;99.90
11089;DHT22;5598;48.648;8.908;2023-08-08T02:11:31;12.80;99.90
11089;DHT22;5598;48.648;8.908;2023-08-08T02:13:58;12.80;99.90
11089;DHT22;5598;48.648;8.908;2023-08-08T02:16:26;12.80;99.90
11089;DHT22;5598;48.648;8.908;2023-08-08T02:18:53;12.90;99.90
11089;DHT22;5598;48.648;8.908;2023-08-08T02:21:20;12.80;99.90
11089;DHT22;5598;48.648;8.908;2023-08-08T02:23:46;12.70;99.90
11089;DHT22;5598;48.648;8.908;2023-08-08T02:26:13;12.70;99.90
11089;DHT22;5598;48.648;8.908;2023-08-08T02:28:40;12.60;99.90
11089;DHT22;5598;48.648;8.908;2023-08-08T02:31:07;12.70;99.90
11089;DHT22;5598;48.648;8.908;2023-08-08T02:33:35;12.60;99.90
11089;DHT22;5598;48.648;8.908;2023-08-08T02:36:03;12.70;99.90
11089;DHT22;5598;48.648;8.908;2023-08-08T02:38:29;12.70;99.90
11089;DHT22;5598;48.648;8.908;2023-08-08T02:40:56;12.70;99.90
11089;DHT22;5598;48.648;8.908;2023-08-08T02:43:23;12.80;99.90
11089;DHT22;5598;48.648;8.908;2023-08-08T02:45:50;12.70;99.90
11089;DHT22;5598;48.648;8.908;2023-08-08T02:48:17;12.70;99.90
11089;DHT22;5598;48.648;8.908;2023-08-08T02:50:45;12.80;99.90
11089;DHT22;5598;48.648;8.908;2023-08-08T02:53:12;12.80;99.90
11089;DHT22;5598;48.648;8.908;2023-08-08T02:55:39;12.80;99.90
11089;DHT22;5598;48.648;8.908;2023-08-08T02:58:06;12.80;99.90
11089;DHT22;5598;48.648;8.908;2023-08-08T03:00:33;12.70;99.90
11089;DHT22;5598;48.648;8.908;2023-08-08T03:03:00;13.00;99.90
11089;DHT22;5598;48.648;8.908;2023-08-08T03:05:26;12.70;99.90
11089;DHT22;5598;48.648;8.908;2023-08-08T03:07:54;12.70;99.90
11089;DHT22;5598;48.648;8.908;2023-08-08T03:10:21;12.60;99.90
11089;DHT22;5598;48.648;8.908;2023-08-08T03:12:48;12.70;99.90
11089;DHT22;5598;48.648;8.908;2023-08-08T03:15:15;12.70;99.90
11089;DHT22;5598;48.648;8.908;2023-08-08T03:17:42;12.70;99.90
11089;DHT22;5598;48.648;8.908;2023-08-08T03:20:10;12.70;99.90
11089;DHT22;5598;48.648;8.908;2023-08-08T03:22:37;12.80;99.90
11089;DHT22;5598;48.648;8.908;2023-08-08T03:25:06;12.80;99.90
11089;DHT22;5598;48.648;8.908;2023-08-08T03:27:32;12.80;99.90
11089;DHT22;5598;48.648;8.908;2023-08-08T03:29:59;12.80;99.90
11089;DHT22;5598;48.648;8.908;2023-08-08T03:32:27;12.80;99.90
11089;DHT22;5598;48.648;8.908;2023-08-08T03:34:54;12.70;99.90
11089;DHT22;5598;48.648;8.908;2023-08-08T03:37:21;12.80;99.90
11089;DHT22;5598;48.648;8.908;2023-08-08T03:39:48;12.80;99.90
11089;DHT22;5598;48.648;8.908;2023-08-08T03:42:16;12.80;99.90
11089;DHT22;5598;48.648;8.908;2023-08-08T03:44:43;12.90;99.90
11089;DHT22;5598;48.648;8.908;2023-08-08T03:47:10;12.80;99.90
11089;DHT22;5598;48.648;8.908;2023-08-08T03:49:37;12.80;99.90
11089;DHT22;5598;48.648;8.908;2023-08-08T03:52:04;12.90;99.90
11089;DHT22;5598;48.648;8.908;2023-08-08T03:54:31;12.80;99.90
11089;DHT22;5598;48.648;8.908;2023-08-08T03:56:58;12.90;99.90
11089;DHT22;5598;48.648;8.908;2023-08-08T03:59:26;12.80;99.90
11089;DHT22;5598;48.648;8.908;2023-08-08T04:01:53;12.80;99.90
11089;DHT22;5598;48.648;8.908;2023-08-08T04:04:19;13.00;99.90
11089;DHT22;5598;48.648;8.908;2023-08-08T04:06:46;12.80;99.90
11089;DHT22;5598;48.648;8.908;2023-08-08T04:09:13;12.80;99.90
11089;DHT22;5598;48.648;8.908;2023-08-08T04:11:40;12.80;99.90
11089;DHT22;5598;48.648;8.908;2023-08-08T04:14:07;12.70;99.90
11089;DHT22;5598;48.648;8.908;2023-08-08T04:16:35;12.80;99.90
11089;DHT22;5598;48.648;8.908;2023-08-08T04:19:02;12.70;99.90
11089;DHT22;5598;48.648;8.908;2023-08-08T04:21:29;12.80;99.90
11089;DHT22;5598;48.648;8.908;2023-08-08T04:23:57;12.70;99.90
11089;DHT22;5598;48.648;8.908;2023-08-08T04:26:24;12.70;99.90
11089;DHT22;5598;48.648;8.908;2023-08-08T04:28:51;12.70;99.90
11089;DHT22;5598;48.648;8.908;2023-08-08T04:31:18;12.60;99.90
11089;DHT22;5598;48.648;8.908;2023-08-08T04:33:46;12.60;99.90
11089;DHT22;5598;48.648;8.908;2023-08-08T04:36:13;12.60;99.90
11089;DHT22;5598;48.648;8.908;2023-08-08T04:38:40;12.60;99.90
11089;DHT22;5598;48.648;8.908;2023-08-08T04:41:07;12.60;99.90
11089;DHT22;5598;48.648;8.908;2023-08-08T04:43:33;12.60;99.90
11089;DHT22;5598;48.648;8.908;2023-08-08T04:46:00;12.60;99.90
11089;DHT22;5598;48.648;8.908;2023-08-08T04:48:27;12.60;99.90
11089;DHT22;5598;48.648;8.908;2023-08-08T04:50:55;12.60;99.90
11089;DHT22;5598;48.648;8.908;2023-08-08T04:53:22;12.60;99.90
11089;DHT22;5598;48.648;8.908;2023-08-08T04:55:49;12.60;99.90
11089;DHT22;5598;48.648;8.908;2023-08-08T04:58:16;12.60;99.90
11089;DHT22;5598;48.648;8.908;2023-08-08T05:00:42;12.60;99.90
11089;DHT22;5598;48.648;8.908;2023-08-08T05:03:09;12.60;99.90
11089;DHT22;5598;48.648;8.908;2023-08-08T05:05:36;12.60;99.90
11089;DHT22;5598;48.648;8.908;2023-08-08T05:08:04;12.70;99.90
11089;DHT22;5598;48.648;8.908;2023-08-08T05:10:31;12.70;99.90
11089;DHT22;5598;48.648;8.908;2023-08-08T05:12:58;12.60;99.90
11089;DHT22;5598;48.648;8.908;2023-08-08T05:15:25;12.70;99.90
11089;DHT22;5598;48.648;8.908;2023-08-08T05:17:51;12.70;99.90
11089;DHT22;5598;48.648;8.908;2023-08-08T05:20:20;12.70;99.90
11089;DHT22;5598;48.648;8.908;2023-08-08T05:22:47;12.70;99.90
11089;DHT22;5598;48.648;8.908;2023-08-08T05:25:16;12.80;99.90
11089;DHT22;5598;48.648;8.908;2023-08-08T05:27:42;12.80;99.90
11089;DHT22;5598;48.648;8.908;2023-08-08T05:30:10;12.90;99.90
11089;DHT22;5598;48.648;8.908;2023-08-08T05:32:37;12.90;99.90
11089;DHT22;5598;48.648;8.908;2023-08-08T05:35:04;12.90;99.90
11089;DHT22;5598;48.648;8.908;2023-08-08T05:37:31;13.00;99.90
11089;DHT22;5598;48.648;8.908;2023-08-08T05:39:58;13.00;99.90
11089;DHT22;5598;48.648;8.908;2023-08-08T05:42:26;13.10;99.90
11089;DHT22;5598;48.648;8.908;2023-08-08T05:44:53;13.10;99.90
11089;DHT22;5598;48.648;8.908;2023-08-08T05:47:20;13.20;99.90
11089;DHT22;5598;48.648;8.908;2023-08-08T05:49:47;13.20;99.90
11089;DHT22;5598;48.648;8.908;2023-08-08T05:52:14;13.30;99.90
11089;DHT22;5598;48.648;8.908;2023-08-08T05:54:40;13.30;99.90
11089;DHT22;5598;48.648;8.908;2023-08-08T05:57:07;13.30;99.90
11089;DHT22;5598;48.648;8.908;2023-08-08T05:59:35;13.40;99.90
11089;DHT22;5598;48.648;8.908;2023-08-08T06:02:02;13.50;99.90
11089;DHT22;5598;48.648;8.908;2023-08-08T06:04:30;13.50;99.90
11089;DHT22;5598;48.648;8.908;2023-08-08T06:06:57;13.60;99.90
11089;DHT22;5598;48.648;8.908;2023-08-08T06:09:24;13.70;99.90
11089;DHT22;5598;48.648;8.908;2023-08-08T06:11:51;13.80;99.90
11089;DHT22;5598;48.648;8.908;2023-08-08T06:14:18;13.80;99.90
11089;DHT22;5598;48.648;8.908;2023-08-08T06:16:46;13.90;99.90
11089;DHT22;5598;48.648;8.908;2023-08-08T06:19:12;14.00;99.90
11089;DHT22;5598;48.648;8.908;2023-08-08T06:21:41;14.10;99.90
11089;DHT22;5598;48.648;8.908;2023-08-08T06:24:07;14.20;99.90
11089;DHT22;5598;48.648;8.908;2023-08-08T06:26:34;14.30;99.90
11089;DHT22;5598;48.648;8.908;2023-08-08T06:29:01;14.30;99.90
11089;DHT22;5598;48.648;8.908;2023-08-08T06:31:29;14.40;99.90
11089;DHT22;5598;48.648;8.908;2023-08-08T06:33:57;14.50;99.90
11089;DHT22;5598;48.648;8.908;2023-08-08T06:36:23;14.60;99.90
11089;DHT22;5598;48.648;8.908;2023-08-08T06:38:50;14.70;99.90
11089;DHT22;5598;48.648;8.908;2023-08-08T06:41:17;14.80;99.90
11089;DHT22;5598;48.648;8.908;2023-08-08T06:43:44;14.90;99.90
11089;DHT22;5598;48.648;8.908;2023-08-08T06:46:10;15.00;99.90
11089;DHT22;5598;48.648;8.908;2023-08-08T06:48:37;15.00;99.90
11089;DHT22;5598;48.648;8.908;2023-08-08T06:51:05;15.10;99.90
11089;DHT22;5598;48.648;8.908;2023-08-08T06:53:32;15.10;99.90
11089;DHT22;5598;48.648;8.908;2023-08-08T06:55:59;15.20;99.90
11089;DHT22;5598;48.648;8.908;2023-08-08T06:58:26;15.40;99.90
11089;DHT22;5598;48.648;8.908;2023-08-08T07:00:52;15.40;99.90
11089;DHT22;5598;48.648;8.908;2023-08-08T07:03:19;15.60;99.90
11089;DHT22;5598;48.648;8.908;2023-08-08T07:05:46;15.70;99.90
11089;DHT22;5598;48.648;8.908;2023-08-08T07:08:18;15.80;98.50
11089;DHT22;5598;48.648;8.908;2023-08-08T07:10:45;15.90;97.60
11089;DHT22;5598;48.648;8.908;2023-08-08T07:13:12;16.00;97.50
11089;DHT22;5598;48.648;8.908;2023-08-08T07:15:40;16.00;97.40
11089;DHT22;5598;48.648;8.908;2023-08-08T07:18:07;16.00;97.70
11089;DHT22;5598;48.648;8.908;2023-08-08T07:20:34;16.00;97.10
11089;DHT22;5598;48.648;8.908;2023-08-08T07:23:01;16.00;97.00
11089;DHT22;5598;48.648;8.908;2023-08-08T07:25:29;16.10;97.30
11089;DHT22;5598;48.648;8.908;2023-08-08T07:27:56;16.20;96.70
11089;DHT22;5598;48.648;8.908;2023-08-08T07:30:23;16.30;96.70
11089;DHT22;5598;48.648;8.908;2023-08-08T07:32:50;16.40;96.20
11089;DHT22;5598;48.648;8.908;2023-08-08T07:35:17;16.40;96.10
11089;DHT22;5598;48.648;8.908;2023-08-08T07:37:44;16.50;95.90
11089;DHT22;5598;48.648;8.908;2023-08-08T07:40:14;16.50;95.60
11089;DHT22;5598;48.648;8.908;2023-08-08T07:42:44;16.70;96.30
11089;DHT22;5598;48.648;8.908;2023-08-08T07:45:11;16.70;95.70
11089;DHT22;5598;48.648;8.908;2023-08-08T07:47:38;16.80;95.40
11089;DHT22;5598;48.648;8.908;2023-08-08T07:50:06;16.80;95.80
11089;DHT22;5598;48.648;8.908;2023-08-08T07:52:33;16.90;95.00
11089;DHT22;5598;48.648;8.908;2023-08-08T07:55:00;17.00;94.70
11089;DHT22;5598;48.648;8.908;2023-08-08T07:57:27;17.10;94.50
11089;DHT22;5598;48.648;8.908;2023-08-08T07:59:57;17.30;94.10
11089;DHT22;5598;48.648;8.908;2023-08-08T08:02:23;17.50;94.20
11089;DHT22;5598;48.648;8.908;2023-08-08T08:04:50;17.70;93.70
11089;DHT22;5598;48.648;8.908;2023-08-08T08:07:17;17.80;94.00
11089;DHT22;5598;48.648;8.908;2023-08-08T08:09:44;18.00;93.20
11089;DHT22;5598;48.648;8.908;2023-08-08T08:12:11;18.00;93.30
11089;DHT22;5598;48.648;8.908;2023-08-08T08:14:38;18.20;93.00
11089;DHT22;5598;48.648;8.908;2023-08-08T08:17:06;18.20;93.00
11089;DHT22;5598;48.648;8.908;2023-08-08T08:19:34;18.20;93.00
11089;DHT22;5598;48.648;8.908;2023-08-08T08:22:01;18.40;92.70
11089;DHT22;5598;48.648;8.908;2023-08-08T08:24:28;18.30;92.50
11089;DHT22;5598;48.648;8.908;2023-08-08T08:26:55;18.20;92.00
11089;DHT22;5598;48.648;8.908;2023-08-08T08:29:22;18.10;92.00
11089;DHT22;5598;48.648;8.908;2023-08-08T08:31:49;18.10;91.90
11089;DHT22;5598;48.648;8.908;2023-08-08T08:34:17;18.10;91.50
11089;DHT22;5598;48.648;8.908;2023-08-08T08:36:43;18.10;92.10
11089;DHT22;5598;48.648;8.908;2023-08-08T08:39:10;18.10;92.80
11089;DHT22;5598;48.648;8.908;2023-08-08T08:41:37;18.40;91.80
11089;DHT22;5598;48.648;8.908;2023-08-08T08:44:05;18.70;91.40
11089;DHT22;5598;48.648;8.908;2023-08-08T08:46:32;19.00;91.20
11089;DHT22;5598;48.648;8.908;2023-08-08T08:49:03;19.20;91.00
11089;DHT22;5598;48.648;8.908;2023-08-08T08:51:35;19.40;90.80
11089;DHT22;5598;48.648;8.908;2023-08-08T08:54:03;19.50;91.20
11089;DHT22;5598;48.648;8.908;2023-08-08T08:56:30;19.70;90.30
11089;DHT22;5598;48.648;8.908;2023-08-08T08:58:58;19.70;89.60
11089;DHT22;5598;48.648;8.908;2023-08-08T09:01:26;19.90;90.00
11089;DHT22;5598;48.648;8.908;2023-08-08T09:03:53;20.00;87.80
11089;DHT22;5598;48.648;8.908;2023-08-08T09:06:20;20.10;88.70
11089;DHT22;5598;48.648;8.908;2023-08-08T09:08:49;20.00;87.60
11089;DHT22;5598;48.648;8.908;2023-08-08T09:11:16;19.90;88.10
11089;DHT22;5598;48.648;8.908;2023-08-08T09:13:43;19.90;86.80
11089;DHT22;5598;48.648;8.908;2023-08-08T09:16:09;20.00;87.60
11089;DHT22;5598;48.648;8.908;2023-08-08T09:18:37;20.10;84.90
11089;DHT22;5598;48.648;8.908;2023-08-08T09:21:04;20.20;83.60
11089;DHT22;5598;48.648;8.908;2023-08-08T09:23:31;20.30;85.00
11089;DHT22;5598;48.648;8.908;2023-08-08T09:25:59;20.40;83.60
11089;DHT22;5598;48.648;8.908;2023-08-08T09:28:26;20.40;85.00
11089;DHT22;5598;48.648;8.908;2023-08-08T09:30:53;20.50;82.70
11089;DHT22;5598;48.648;8.908;2023-08-08T09:33:20;20.60;82.80
11089;DHT22;5598;48.648;8.908;2023-08-08T09:35:47;20.80;82.60
11089;DHT22;5598;48.648;8.908;2023-08-08T09:38:14;20.90;83.30
11089;DHT22;5598;48.648;8.908;2023-08-08T09:40:41;20.90;81.90
11089;DHT22;5598;48.648;8.908;2023-08-08T09:43:09;21.10;81.60
11089;DHT22;5598;48.648;8.908;2023-08-08T09:45:36;21.10;79.80
11089;DHT22;5598;48.648;8.908;2023-08-08T09:48:04;20.80;80.90
11089;DHT22;5598;48.648;8.908;2023-08-08T09:50:33;20.70;81.90
11089;DHT22;5598;48.648;8.908;2023-08-08T09:53:01;20.70;78.80
11089;DHT22;5598;48.648;8.908;2023-08-08T09:55:28;20.80;76.20
11089;DHT22;5598;48.648;8.908;2023-08-08T09:57:56;20.90;78.10
11089;DHT22;5598;48.648;8.908;2023-08-08T10:00:25;21.20;76.70
11089;DHT22;5598;48.648;8.908;2023-08-08T10:02:54;21.50;77.70
11089;DHT22;5598;48.648;8.908;2023-08-08T10:05:21;21.70;74.30
11089;DHT22;5598;48.648;8.908;2023-08-08T10:07:48;21.70;76.10
11089;DHT22;5598;48.648;8.908;2023-08-08T10:10:15;21.80;76.40
11089;DHT22;5598;48.648;8.908;2023-08-08T10:12:44;21.90;75.60
11089;DHT22;5598;48.648;8.908;2023-08-08T10:15:12;21.80;76.20
11089;DHT22;5598;48.648;8.908;2023-08-08T10:17:41;21.70;77.40
11089;DHT22;5598;48.648;8.908;2023-08-08T10:20:09;21.40;74.70
11089;DHT22;5598;48.648;8.908;2023-08-08T10:22:38;21.20;73.80
11089;DHT22;5598;48.648;8.908;2023-08-08T10:25:08;21.20;78.00
11089;DHT22;5598;48.648;8.908;2023-08-08T10:27:36;21.30;73.10
11089;DHT22;5598;48.648;8.908;2023-08-08T10:30:06;21.20;73.20
11089;DHT22;5598;48.648;8.908;2023-08-08T10:32:43;21.10;75.60
11089;DHT22;5598;48.648;8.908;2023-08-08T10:35:12;21.40;74.90
11089;DHT22;5598;48.648;8.908;2023-08-08T10:37:40;21.60;75.20
11089;DHT22;5598;48.648;8.908;2023-08-08T10:40:08;21.60;75.10
11089;DHT22;5598;48.648;8.908;2023-08-08T10:42:44;21.70;74.30
11089;DHT22;5598;48.648;8.908;2023-08-08T10:45:14;21.70;71.90
11089;DHT22;5598;48.648;8.908;2023-08-08T10:47:43;21.60;72.00
11089;DHT22;5598;48.648;8.908;2023-08-08T10:50:13;21.70;73.10
11089;DHT22;5598;48.648;8.908;2023-08-08T10:52:55;21.80;69.50
11089;DHT22;5598;48.648;8.908;2023-08-08T10:55:23;22.00;71.70
11089;DHT22;5598;48.648;8.908;2023-08-08T10:57:55;22.20;71.10
11089;DHT22;5598;48.648;8.908;2023-08-08T11:00:24;22.50;71.60
11089;DHT22;5598;48.648;8.908;2023-08-08T11:02:53;22.70;71.00
11089;DHT22;5598;48.648;8.908;2023-08-08T11:05:22;23.00;71.10
11089;DHT22;5598;48.648;8.908;2023-08-08T11:07:49;23.20;69.30
11089;DHT22;5598;48.648;8.908;2023-08-08T11:10:16;23.40;64.50
11089;DHT22;5598;48.648;8.908;2023-08-08T11:12:55;23.50;68.70
11089;DHT22;5598;48.648;8.908;2023-08-08T11:15:22;23.50;69.80
11089;DHT22;5598;48.648;8.908;2023-08-08T11:17:49;23.70;66.60
11089;DHT22;5598;48.648;8.908;2023-08-08T11:20:19;23.50;66.20
11089;DHT22;5598;48.648;8.908;2023-08-08T11:22:51;23.40;67.00
11089;DHT22;5598;48.648;8.908;2023-08-08T11:25:18;23.30;65.60
11089;DHT22;5598;48.648;8.908;2023-08-08T11:27:49;23.50;64.90
11089;DHT22;5598;48.648;8.908;2023-08-08T11:30:16;23.60;66.40
11089;DHT22;5598;48.648;8.908;2023-08-08T11:32:44;23.70;63.20
11089;DHT22;5598;48.648;8.908;2023-08-08T11:35:12;23.60;62.70
11089;DHT22;5598;48.648;8.908;2023-08-08T11:37:40;23.70;63.50
11089;DHT22;5598;48.648;8.908;2023-08-08T11:40:07;23.80;65.10
11089;DHT22;5598;48.648;8.908;2023-08-08T11:42:35;23.90;63.20
11089;DHT22;5598;48.648;8.908;2023-08-08T11:45:02;24.10;61.70
11089;DHT22;5598;48.648;8.908;2023-08-08T11:47:30;24.20;62.30
11089;DHT22;5598;48.648;8.908;2023-08-08T11:50:01;24.10;60.40
11089;DHT22;5598;48.648;8.908;2023-08-08T11:52:28;24.10;59.90
11089;DHT22;5598;48.648;8.908;2023-08-08T11:54:58;24.00;63.10
11089;DHT22;5598;48.648;8.908;2023-08-08T11:57:26;23.90;63.00
11089;DHT22;5598;48.648;8.908;2023-08-08T11:59:53;24.10;63.50
11089;DHT22;5598;48.648;8.908;2023-08-08T12:02:20;24.20;61.50
11089;DHT22;5598;48.648;8.908;2023-08-08T12:04:47;24.20;62.40
11089;DHT22;5598;48.648;8.908;2023-08-08T12:07:14;24.10;63.00
11089;DHT22;5598;48.648;8.908;2023-08-08T12:09:41;24.10;64.10
11089;DHT22;5598;48.648;8.908;2023-08-08T12:12:09;24.10;65.30
11089;DHT22;5598;48.648;8.908;2023-08-08T12:14:37;24.00;62.20
11089;DHT22;5598;48.648;8.908;2023-08-08T12:17:04;23.70;63.20
11089;DHT22;5598;48.648;8.908;2023-08-08T12:19:31;23.50;65.50
11089;DHT22;5598;48.648;8.908;2023-08-08T12:21:57;23.50;65.70
11089;DHT22;5598;48.648;8.908;2023-08-08T12:24:24;23.60;67.00
11089;DHT22;5598;48.648;8.908;2023-08-08T12:26:51;23.40;67.20
11089;DHT22;5598;48.648;8.908;2023-08-08T12:29:20;23.50;67.70
11089;DHT22;5598;48.648;8.908;2023-08-08T12:31:46;23.60;66.30
11089;DHT22;5598;48.648;8.908;2023-08-08T12:34:13;23.80;67.50
11089;DHT22;5598;48.648;8.908;2023-08-08T12:36:40;23.90;66.80
11089;DHT22;5598;48.648;8.908;2023-08-08T12:39:07;24.00;67.30
11089;DHT22;5598;48.648;8.908;2023-08-08T12:41:34;23.90;65.30
11089;DHT22;5598;48.648;8.908;2023-08-08T12:44:00;23.80;64.90
11089;DHT22;5598;48.648;8.908;2023-08-08T12:46:30;23.50;64.40
11089;DHT22;5598;48.648;8.908;2023-08-08T12:48:56;23.20;65.20
11089;DHT22;5598;48.648;8.908;2023-08-08T12:51:23;22.90;67.20
11089;DHT22;5598;48.648;8.908;2023-08-08T12:53:50;22.60;66.00
11089;DHT22;5598;48.648;8.908;2023-08-08T12:56:17;22.30;66.00
11089;DHT22;5598;48.648;8.908;2023-08-08T12:58:44;21.90;68.00
11089;DHT22;5598;48.648;8.908;2023-08-08T13:01:11;21.70;70.60
11089;DHT22;5598;48.648;8.908;2023-08-08T13:03:39;21.70;71.20
11089;DHT22;5598;48.648;8.908;2023-08-08T13:06:06;21.90;73.40
11089;DHT22;5598;48.648;8.908;2023-08-08T13:08:33;22.30;70.80
11089;DHT22;5598;48.648;8.908;2023-08-08T13:11:00;22.50;71.40
11089;DHT22;5598;48.648;8.908;2023-08-08T13:13:27;22.80;70.30
11089;DHT22;5598;48.648;8.908;2023-08-08T13:15:53;22.90;70.70
11089;DHT22;5598;48.648;8.908;2023-08-08T13:18:20;23.00;69.70
11089;DHT22;5598;48.648;8.908;2023-08-08T13:20:48;23.00;70.60
11089;DHT22;5598;48.648;8.908;2023-08-08T13:23:18;22.90;66.20
11089;DHT22;5598;48.648;8.908;2023-08-08T13:25:45;22.70;65.80
11089;DHT22;5598;48.648;8.908;2023-08-08T13:28:12;22.60;67.20
11089;DHT22;5598;48.648;8.908;2023-08-08T13:30:40;22.60;71.50
11089;DHT22;5598;48.648;8.908;2023-08-08T13:33:08;22.60;70.10
11089;DHT22;5598;48.648;8.908;2023-08-08T13:35:35;22.80;69.20
11089;DHT22;5598;48.648;8.908;2023-08-08T13:38:03;22.70;67.80
11089;DHT22;5598;48.648;8.908;2023-08-08T13:40:30;22.50;68.80
11089;DHT22;5598;48.648;8.908;2023-08-08T13:42:57;22.40;68.50
11089;DHT22;5598;48.648;8.908;2023-08-08T13:45:24;22.30;70.30
11089;DHT22;5598;48.648;8.908;2023-08-08T13:47:51;22.20;70.00
11089;DHT22;5598;48.648;8.908;2023-08-08T13:50:18;22.20;69.20
11089;DHT22;5598;48.648;8.908;2023-08-08T13:52:45;22.10;70.20
11089;DHT22;5598;48.648;8.908;2023-08-08T13:55:13;21.90;70.60
11089;DHT22;5598;48.648;8.908;2023-08-08T13:57:40;21.80;72.60
11089;DHT22;5598;48.648;8.908;2023-08-08T14:00:08;21.70;74.30
11089;DHT22;5598;48.648;8.908;2023-08-08T14:02:36;21.60;74.60
11089;DHT22;5598;48.648;8.908;2023-08-08T14:05:04;21.50;72.70
11089;DHT22;5598;48.648;8.908;2023-08-08T14:07:32;21.50;74.30
11089;DHT22;5598;48.648;8.908;2023-08-08T14:09:58;21.40;73.20
11089;DHT22;5598;48.648;8.908;2023-08-08T14:12:27;21.30;74.20
11089;DHT22;5598;48.648;8.908;2023-08-08T14:14:53;21.30;74.00
11089;DHT22;5598;48.648;8.908;2023-08-08T14:17:20;21.20;74.90
11089;DHT22;5598;48.648;8.908;2023-08-08T14:19:47;21.20;73.40
11089;DHT22;5598;48.648;8.908;2023-08-08T14:22:14;21.10;75.50
11089;DHT22;5598;48.648;8.908;2023-08-08T14:24:41;21.10;76.00
11089;DHT22;5598;48.648;8.908;2023-08-08T14:27:08;21.10;75.50
11089;DHT22;5598;48.648;8.908;2023-08-08T14:29:37;21.10;74.40
11089;DHT22;5598;48.648;8.908;2023-08-08T14:32:04;21.00;75.30
11089;DHT22;5598;48.648;8.908;2023-08-08T14:34:32;21.00;76.90
11089;DHT22;5598;48.648;8.908;2023-08-08T14:37:00;21.00;75.40
11089;DHT22;5598;48.648;8.908;2023-08-08T14:39:27;21.00;75.50
11089;DHT22;5598;48.648;8.908;2023-08-08T14:41:54;20.90;75.20
11089;DHT22;5598;48.648;8.908;2023-08-08T14:44:21;20.80;76.40
11089;DHT22;5598;48.648;8.908;2023-08-08T14:46:50;20.80;75.30
11089;DHT22;5598;48.648;8.908;2023-08-08T14:49:17;20.80;77.00
11089;DHT22;5598;48.648;8.908;2023-08-08T14:51:43;20.80;75.60
11089;DHT22;5598;48.648;8.908;2023-08-08T14:54:10;20.80;75.50
11089;DHT22;5598;48.648;8.908;2023-08-08T14:56:37;20.90;76.40
11089;DHT22;5598;48.648;8.908;2023-08-08T14:59:04;20.90;75.90
11089;DHT22;5598;48.648;8.908;2023-08-08T15:01:31;20.90;74.90
11089;DHT22;5598;48.648;8.908;2023-08-08T15:03:59;20.90;75.00
11089;DHT22;5598;48.648;8.908;2023-08-08T15:06:26;21.00;75.30
11089;DHT22;5598;48.648;8.908;2023-08-08T15:08:53;21.00;74.60
11089;DHT22;5598;48.648;8.908;2023-08-08T15:11:20;21.00;76.50
11089;DHT22;5598;48.648;8.908;2023-08-08T15:13:46;21.00;76.00
11089;DHT22;5598;48.648;8.908;2023-08-08T15:16:13;21.20;75.60
11089;DHT22;5598;48.648;8.908;2023-08-08T15:18:41;21.30;76.20
11089;DHT22;5598;48.648;8.908;2023-08-08T15:21:09;21.30;74.80
11089;DHT22;5598;48.648;8.908;2023-08-08T15:23:36;21.30;75.10
11089;DHT22;5598;48.648;8.908;2023-08-08T15:26:02;21.20;75.40
11089;DHT22;5598;48.648;8.908;2023-08-08T15:28:29;21.00;74.30
11089;DHT22;5598;48.648;8.908;2023-08-08T15:30:56;20.90;76.40
11089;DHT22;5598;48.648;8.908;2023-08-08T15:33:23;20.80;77.10
11089;DHT22;5598;48.648;8.908;2023-08-08T15:35:50;20.70;77.10
11089;DHT22;5598;48.648;8.908;2023-08-08T15:38:18;20.70;76.50
11089;DHT22;5598;48.648;8.908;2023-08-08T15:40:45;20.60;76.80
11089;DHT22;5598;48.648;8.908;2023-08-08T15:43:11;20.60;77.30
11089;DHT22;5598;48.648;8.908;2023-08-08T15:45:38;20.50;76.40